Terminal Aerodrome Forecast
Issued by NWS Grand Forks, ND

Home | Current Version | Previous Version | Graphics & Text | Print | Product List | Glossary On
Versions: 1 2 3 4 5 6 7 8 9 10 11 12 13 14 15
445
FTUS43 KFGF 190336 AAA
TAFGFK
TAF AMD
KGFK 190336Z 1904/1924 23004KT P6SM SKC
     FM191600 20008KT P6SM FEW250
     FM192000 19012KT P6SM FEW250=

USA.gov is the U.S. government's official web portal to all federal, state and local government web resources and services.